Sakarya, Turkey
Current Conditions -  °F | °C
As of 3:50 AM on Saturday 25 Oct 2014 (Local Time) from LTBQ Reporting Station
Broken Clouds Broken Clouds  
Wind Chill: 59°   Ceiling: 3500
Heat Index: 59°   Visibility: 6mi
Dew Point: 57°   Wind: 1mph
Humidity: 94%   Direction: 170°S
Pressure: 29.8"   Gusts: NA
Location:  40.75°N, 30.45°E
Report Text: LTBQ 250050Z 17001KT 9999 BKN035 BKN100 15/14 Q1009 RESHRA NOSIG
Loading
Personal Weather Stations






























Interactive Weather Map New forecast layout! Learn more

10-Day Weather Forecast

Advertisements
Track Severe Weather on mobile